createdAt,value
2022-12-31T00:01:19.462Z,100029.81
2022-12-31T00:03:46.248Z,100022.06
2022-12-31T00:06:17.095Z,100029.63
2022-12-31T00:08:44.686Z,100027.84
2022-12-31T00:11:12.399Z,100026.69
2022-12-31T00:13:39.255Z,100020.63
2022-12-31T00:16:12.366Z,100016.03
2022-12-31T00:18:39.463Z,100014.22
2022-12-31T00:21:09.682Z,100015.53
2022-12-31T00:23:37.285Z,100017.03
2022-12-31T00:26:06.241Z,100002.41
2022-12-31T00:28:33.644Z,100017.53
2022-12-31T00:31:15.363Z,100017.72
2022-12-31T00:33:42.986Z,100010.69
2022-12-31T00:36:13.981Z,100010.72
2022-12-31T00:38:42.957Z,100010.06
2022-12-31T00:41:10.743Z,100015.00
2022-12-31T00:43:37.471Z,99998.75
2022-12-31T00:46:05.408Z,100012.38
2022-12-31T00:48:32.671Z,100000.56
2022-12-31T00:51:00.119Z,99992.53
2022-12-31T00:53:27.384Z,99987.13
2022-12-31T00:56:00.437Z,99973.78
2022-12-31T00:58:27.449Z,99976.63
2022-12-31T01:00:54.148Z,99985.16
2022-12-31T01:03:20.854Z,99969.38
2022-12-31T01:05:47.426Z,99977.09
2022-12-31T01:08:13.884Z,99959.88
2022-12-31T01:10:58.863Z,99966.59
2022-12-31T01:13:25.310Z,99982.03
2022-12-31T01:15:52.110Z,99978.25
2022-12-31T01:18:18.641Z,99983.97
2022-12-31T01:20:45.100Z,99968.69
2022-12-31T01:23:11.811Z,99975.63
2022-12-31T01:25:41.790Z,99959.53
2022-12-31T01:28:09.452Z,99967.22
2022-12-31T01:30:38.913Z,99969.19
2022-12-31T01:33:05.469Z,99951.63
2022-12-31T01:35:34.703Z,99978.22
2022-12-31T01:38:01.237Z,99985.63
2022-12-31T01:40:27.706Z,99991.72
2022-12-31T01:42:58.084Z,99979.34
2022-12-31T01:45:25.051Z,99976.03
2022-12-31T01:47:59.603Z,99986.53
2022-12-31T01:50:32.459Z,99973.16
2022-12-31T01:53:03.480Z,99980.59
2022-12-31T01:55:34.608Z,99980.75
2022-12-31T01:58:14.051Z,99989.00
2022-12-31T02:00:40.672Z,99972.38
2022-12-31T02:03:08.612Z,99992.97
2022-12-31T02:05:51.576Z,100025.03
2022-12-31T02:08:18.070Z,99992.78
2022-12-31T02:10:44.542Z,99981.47
2022-12-31T02:13:11.116Z,99967.47
2022-12-31T02:16:01.962Z,99983.25
2022-12-31T02:18:43.408Z,99963.00
2022-12-31T02:21:31.277Z,99984.56
2022-12-31T02:24:39.576Z,99985.53
2022-12-31T02:27:40.388Z,99982.91
2022-12-31T02:30:09.209Z,99975.84
2022-12-31T02:32:50.253Z,99983.56
2022-12-31T02:35:37.802Z,100020.75
2022-12-31T02:38:09.023Z,99983.50
2022-12-31T02:40:38.151Z,99991.03
2022-12-31T02:43:05.060Z,99991.88
2022-12-31T02:45:37.159Z,99991.03
2022-12-31T02:48:27.599Z,99998.28
2022-12-31T02:51:02.927Z,100012.47
2022-12-31T02:53:36.161Z,99996.50
2022-12-31T02:56:47.525Z,100008.97
2022-12-31T02:59:49.591Z,99984.00
2022-12-31T03:02:20.048Z,100010.31
2022-12-31T03:04:55.340Z,100022.69
2022-12-31T03:07:25.148Z,99998.16
2022-12-31T03:09:52.215Z,100025.94
2022-12-31T03:12:40.915Z,100008.63
2022-12-31T03:15:20.086Z,100012.25
2022-12-31T03:17:54.839Z,100022.13
2022-12-31T03:20:42.992Z,100012.59
2022-12-31T03:23:12.522Z,100006.03
2022-12-31T03:25:39.124Z,100036.78
2022-12-31T03:28:11.516Z,100007.22
2022-12-31T03:30:40.087Z,100002.84
2022-12-31T03:33:07.826Z,100030.31
2022-12-31T03:35:36.328Z,100004.63
2022-12-31T03:38:04.067Z,100012.38
2022-12-31T03:40:32.251Z,100032.59
2022-12-31T03:42:58.728Z,100027.69
2022-12-31T03:45:25.253Z,100014.34
2022-12-31T03:47:51.831Z,100018.81
2022-12-31T03:50:19.235Z,100048.88
2022-12-31T03:52:46.490Z,100026.88
2022-12-31T03:55:13.840Z,100007.78
2022-12-31T03:57:40.812Z,100023.91
2022-12-31T04:00:11.928Z,100031.47
2022-12-31T04:02:38.619Z,100026.53
2022-12-31T04:05:05.728Z,100009.63
2022-12-31T04:07:32.194Z,100021.94
2022-12-31T04:09:58.811Z,100010.72
2022-12-31T04:12:25.257Z,100007.94
2022-12-31T04:14:51.770Z,100012.38
2022-12-31T04:17:18.263Z,100006.47
2022-12-31T04:19:44.776Z,99999.22
2022-12-31T04:22:11.242Z,100002.47
2022-12-31T04:24:37.706Z,99994.22
2022-12-31T04:27:07.830Z,99998.84
2022-12-31T04:29:34.663Z,100009.69
2022-12-31T04:32:01.406Z,100045.91
2022-12-31T04:34:27.939Z,100018.91
2022-12-31T04:36:54.439Z,100018.69
2022-12-31T04:39:20.895Z,100024.59
2022-12-31T04:41:47.415Z,100024.31
2022-12-31T04:44:13.987Z,100063.09
2022-12-31T04:46:40.458Z,100041.22
2022-12-31T04:49:06.960Z,100030.34
2022-12-31T04:51:33.902Z,100034.63
2022-12-31T04:54:01.015Z,100039.84
2022-12-31T04:56:27.977Z,100037.09
2022-12-31T04:58:54.802Z,100025.25
2022-12-31T05:01:21.755Z,100053.38
2022-12-31T05:03:48.917Z,100069.28
2022-12-31T05:06:20.889Z,100033.53
2022-12-31T05:08:48.166Z,100034.56
2022-12-31T05:11:14.942Z,100031.56
2022-12-31T05:13:41.880Z,100015.13
2022-12-31T05:16:09.230Z,100034.56
2022-12-31T05:18:36.351Z,100034.72
2022-12-31T05:21:02.884Z,100038.81
2022-12-31T05:23:29.702Z,100016.75
2022-12-31T05:25:56.595Z,100072.41
2022-12-31T05:28:23.056Z,100046.72
2022-12-31T05:30:50.866Z,100062.38
2022-12-31T05:33:18.408Z,100051.84
2022-12-31T05:35:45.539Z,100066.63
2022-12-31T05:38:12.083Z,100049.72
2022-12-31T05:40:38.565Z,100039.50
2022-12-31T05:43:05.112Z,100031.31
2022-12-31T05:45:31.657Z,100034.09
2022-12-31T05:47:58.201Z,100053.38
2022-12-31T05:50:24.912Z,100026.69
2022-12-31T05:52:51.410Z,100063.72
2022-12-31T05:55:18.068Z,100065.41
2022-12-31T05:57:44.536Z,100071.00
2022-12-31T06:00:11.816Z,100066.06
2022-12-31T06:02:38.314Z,100101.78
2022-12-31T06:05:05.304Z,100072.09
2022-12-31T06:07:31.921Z,100066.19
2022-12-31T06:09:58.445Z,100086.88
2022-12-31T06:12:24.978Z,100113.06
2022-12-31T06:14:51.486Z,100080.31
2022-12-31T06:17:19.041Z,100092.94
2022-12-31T06:19:47.245Z,100099.03
2022-12-31T06:22:14.088Z,100116.03
2022-12-31T06:24:40.662Z,100093.13
2022-12-31T06:27:07.123Z,100128.84
2022-12-31T06:29:33.692Z,100128.84
2022-12-31T06:32:00.187Z,100126.34
2022-12-31T06:34:26.643Z,100128.13
2022-12-31T06:36:53.196Z,100124.81
2022-12-31T06:39:19.717Z,100124.34
2022-12-31T06:41:46.165Z,100122.72
2022-12-31T06:44:12.653Z,100136.88
2022-12-31T06:46:39.138Z,100134.13
2022-12-31T06:49:05.719Z,100142.19
2022-12-31T06:51:32.178Z,100141.69
2022-12-31T06:53:58.671Z,100134.94
2022-12-31T06:56:33.879Z,100154.56
2022-12-31T06:59:01.865Z,100158.97
2022-12-31T07:01:50.365Z,100148.44
2022-12-31T07:04:29.663Z,100147.28
2022-12-31T07:06:56.050Z,100163.94
2022-12-31T07:09:58.135Z,100139.38
2022-12-31T07:12:55.346Z,100146.47
2022-12-31T07:15:24.716Z,100165.06
2022-12-31T07:18:30.130Z,100172.50
2022-12-31T07:20:56.756Z,100184.19
2022-12-31T07:23:23.453Z,100166.06
2022-12-31T07:26:16.726Z,100165.56
2022-12-31T07:29:03.898Z,100163.44
2022-12-31T07:31:48.917Z,100164.38
2022-12-31T07:34:37.667Z,100179.03
2022-12-31T07:37:16.286Z,100202.06
2022-12-31T07:40:03.282Z,100177.66
2022-12-31T07:42:42.794Z,100187.22
2022-12-31T07:45:26.486Z,100202.03
2022-12-31T07:47:57.462Z,100190.97
2022-12-31T07:50:27.376Z,100187.50
2022-12-31T07:52:54.215Z,100169.09
2022-12-31T07:55:20.737Z,100193.13
2022-12-31T07:58:03.313Z,100201.84
2022-12-31T08:00:31.307Z,100196.25
2022-12-31T08:03:16.252Z,100201.03
2022-12-31T08:06:08.347Z,100209.94
2022-12-31T08:09:00.396Z,100216.50
2022-12-31T08:11:37.937Z,100201.84
2022-12-31T08:14:10.132Z,100226.91
2022-12-31T08:16:36.914Z,100202.69
2022-12-31T08:19:03.960Z,100204.22
2022-12-31T08:21:45.484Z,100224.44
2022-12-31T08:24:35.762Z,100228.72
2022-12-31T08:27:07.825Z,100205.97
2022-12-31T08:30:04.649Z,100205.16
2022-12-31T08:32:52.587Z,100222.13
2022-12-31T08:35:56.661Z,100222.63
2022-12-31T08:38:32.454Z,100232.66
2022-12-31T08:41:04.823Z,100240.56
2022-12-31T08:43:49.665Z,100248.13
2022-12-31T08:46:31.410Z,100240.03
2022-12-31T08:48:58.139Z,100268.41
2022-12-31T08:51:26.437Z,100271.53
2022-12-31T08:53:53.566Z,100259.00
2022-12-31T08:56:36.520Z,100248.41
2022-12-31T08:59:08.757Z,100257.97
2022-12-31T09:01:50.307Z,100271.94
2022-12-31T09:04:55.768Z,100255.47
2022-12-31T09:07:51.177Z,100275.44
2022-12-31T09:10:25.814Z,100295.69
2022-12-31T09:13:08.119Z,100300.66
2022-12-31T09:15:58.747Z,100325.69
2022-12-31T09:18:31.243Z,100330.44
2022-12-31T09:20:59.736Z,100322.38
2022-12-31T09:23:26.949Z,100320.25
2022-12-31T09:26:05.211Z,100341.00
2022-12-31T09:29:01.810Z,100353.19
2022-12-31T09:31:40.145Z,100372.31
2022-12-31T09:34:25.265Z,100364.06
2022-12-31T09:36:59.286Z,100375.44
2022-12-31T09:39:30.834Z,100387.94
2022-12-31T09:42:26.615Z,100375.88
2022-12-31T09:45:23.972Z,100364.22
2022-12-31T09:48:11.824Z,100375.88
2022-12-31T09:51:01.461Z,100388.75
2022-12-31T09:53:30.847Z,100388.75
2022-12-31T09:56:09.477Z,100380.84
2022-12-31T09:59:14.025Z,100403.09
2022-12-31T10:02:06.714Z,100409.19
2022-12-31T10:04:56.183Z,100418.44
2022-12-31T10:08:00.530Z,100410.53
2022-12-31T10:10:53.373Z,100411.81
2022-12-31T10:14:00.291Z,100432.28
2022-12-31T10:16:40.717Z,100417.47
2022-12-31T10:19:31.484Z,100414.16
2022-12-31T10:21:57.920Z,100415.47
2022-12-31T10:24:39.493Z,100422.22
2022-12-31T10:27:30.648Z,100422.06
2022-12-31T10:30:13.100Z,100406.38
2022-12-31T10:33:16.519Z,100423.53
2022-12-31T10:36:09.129Z,100427.00
2022-12-31T10:38:38.695Z,100418.28
2022-12-31T10:42:05.582Z,100409.34
2022-12-31T10:44:59.715Z,100414.63
2022-12-31T10:47:26.128Z,100407.72
2022-12-31T10:50:21.396Z,100409.50
2022-12-31T10:53:09.107Z,100398.31
2022-12-31T10:55:54.519Z,100401.13
2022-12-31T10:58:45.550Z,100403.09
2022-12-31T11:01:30.578Z,100396.50
2022-12-31T11:04:34.461Z,100403.09
2022-12-31T11:07:13.031Z,100399.13
2022-12-31T11:09:51.596Z,100405.88
2022-12-31T11:12:54.997Z,100397.63
2022-12-31T11:15:21.481Z,100395.66
2022-12-31T11:18:06.371Z,100398.59
2022-12-31T11:20:55.920Z,100406.53
2022-12-31T11:23:50.321Z,100403.09
2022-12-31T11:26:27.939Z,100396.16
2022-12-31T11:29:03.762Z,100383.75
2022-12-31T11:31:52.461Z,100397.28
2022-12-31T11:34:31.933Z,100402.25
2022-12-31T11:37:22.417Z,100413.63
2022-12-31T11:39:51.981Z,100406.84
2022-12-31T11:42:44.010Z,100421.72
2022-12-31T11:45:15.060Z,100416.91
2022-12-31T11:48:38.812Z,100412.81
2022-12-31T11:51:36.707Z,100408.53
2022-12-31T11:54:21.752Z,100406.72
2022-12-31T11:56:58.494Z,100410.50
2022-12-31T11:59:25.065Z,100413.78
2022-12-31T12:02:30.603Z,100424.03
2022-12-31T12:05:05.027Z,100410.66
2022-12-31T12:07:36.816Z,100404.56
2022-12-31T12:10:14.980Z,100397.63
2022-12-31T12:12:42.826Z,100389.25
2022-12-31T12:15:16.796Z,100393.16
2022-12-31T12:17:43.583Z,100385.41
2022-12-31T12:20:21.567Z,100387.53
2022-12-31T12:22:50.783Z,100383.25
2022-12-31T12:25:21.360Z,100388.00
2022-12-31T12:27:48.127Z,100389.66
2022-12-31T12:30:26.972Z,100379.09
2022-12-31T12:32:58.462Z,100409.41
2022-12-31T12:35:31.079Z,100398.22
2022-12-31T12:38:05.048Z,100422.94
2022-12-31T12:40:34.293Z,100401.00
2022-12-31T12:43:03.156Z,100386.81
2022-12-31T12:45:47.671Z,100389.09
2022-12-31T12:48:46.310Z,100400.00
2022-12-31T12:51:18.849Z,100409.44
2022-12-31T12:54:06.433Z,100432.56
2022-12-31T12:57:13.810Z,100460.97
2022-12-31T12:59:56.141Z,100436.22
2022-12-31T13:02:51.565Z,100438.16
2022-12-31T13:05:50.486Z,100415.13
2022-12-31T13:08:26.140Z,100453.88
2022-12-31T13:11:04.978Z,100449.28
2022-12-31T13:14:15.744Z,100450.13
2022-12-31T13:17:04.171Z,100460.69
2022-12-31T13:19:38.094Z,100461.84
2022-12-31T13:22:25.460Z,100494.66
2022-12-31T13:25:06.478Z,100451.63
2022-12-31T13:27:41.725Z,100467.63
2022-12-31T13:30:19.915Z,100456.41
2022-12-31T13:32:52.015Z,100447.22
2022-12-31T13:35:24.780Z,100450.50
2022-12-31T13:38:04.788Z,100463.69
2022-12-31T13:40:46.568Z,100418.53
2022-12-31T13:43:25.685Z,100433.41
2022-12-31T13:46:04.160Z,100448.06
2022-12-31T13:48:37.947Z,100437.81
2022-12-31T13:51:26.486Z,100446.66
2022-12-31T13:54:10.676Z,100460.63
2022-12-31T13:56:39.045Z,100454.72
2022-12-31T13:59:16.702Z,100441.34
2022-12-31T14:01:52.367Z,100430.66
2022-12-31T14:04:29.502Z,100423.06
2022-12-31T14:07:15.763Z,100435.56
2022-12-31T14:09:42.767Z,100449.22
2022-12-31T14:12:24.472Z,100418.59
2022-12-31T14:15:28.692Z,100420.44
2022-12-31T14:18:17.355Z,100427.66
2022-12-31T14:21:07.720Z,100416.78
2022-12-31T14:23:46.499Z,100420.25
2022-12-31T14:26:27.572Z,100425.66
2022-12-31T14:29:00.919Z,100438.97
2022-12-31T14:31:51.849Z,100428.59
2022-12-31T14:34:37.045Z,100424.69
2022-12-31T14:37:18.776Z,100420.25
2022-12-31T14:40:27.429Z,100414.66
2022-12-31T14:43:22.292Z,100419.91
2022-12-31T14:46:07.715Z,100411.03
2022-12-31T14:49:17.461Z,100417.78
2022-12-31T14:51:44.039Z,100419.44
2022-12-31T14:54:29.402Z,100412.19
2022-12-31T14:56:56.005Z,100422.22
2022-12-31T14:59:28.628Z,100433.41
2022-12-31T15:01:57.732Z,100417.81
2022-12-31T15:04:32.324Z,100431.97
2022-12-31T15:07:08.456Z,100433.91
2022-12-31T15:10:03.009Z,100446.44
2022-12-31T15:12:48.175Z,100457.97
2022-12-31T15:15:35.834Z,100455.00
2022-12-31T15:18:40.922Z,100459.13
2022-12-31T15:21:27.714Z,100449.75
2022-12-31T15:23:54.664Z,100448.13
2022-12-31T15:26:34.643Z,100461.31
2022-12-31T15:29:07.353Z,100451.44
2022-12-31T15:31:36.096Z,100447.31
2022-12-31T15:34:20.283Z,100457.69
2022-12-31T15:36:54.176Z,100462.63
2022-12-31T15:39:32.544Z,100468.13
2022-12-31T15:44:59.315Z,100450.00
2022-12-31T15:47:40.132Z,100454.63
2022-12-31T15:50:13.109Z,100464.34
2022-12-31T15:52:42.987Z,100446.72
2022-12-31T15:55:22.020Z,100452.97
2022-12-31T15:57:50.589Z,100460.03
2022-12-31T16:00:22.253Z,100456.44
2022-12-31T16:02:53.424Z,100458.91
2022-12-31T16:05:26.438Z,100457.25
2022-12-31T16:07:57.459Z,100442.03
2022-12-31T16:10:32.394Z,100467.81
2022-12-31T16:12:59.826Z,100474.41
2022-12-31T16:15:32.805Z,100463.63
2022-12-31T16:18:23.005Z,100466.66
2022-12-31T16:20:51.717Z,100450.63
2022-12-31T16:23:27.704Z,100461.97
2022-12-31T16:26:00.639Z,100461.19
2022-12-31T16:28:32.543Z,100464.63
2022-12-31T16:31:02.545Z,100459.53
2022-12-31T16:33:30.626Z,100452.75
2022-12-31T16:35:59.290Z,100447.66
2022-12-31T16:38:37.045Z,100453.41
2022-12-31T16:41:03.530Z,100458.81
2022-12-31T16:43:31.272Z,100455.22
2022-12-31T16:46:07.245Z,100444.81
2022-12-31T16:48:33.999Z,100452.56
2022-12-31T16:51:00.561Z,100459.97
2022-12-31T16:53:28.300Z,100457.63
2022-12-31T16:56:06.247Z,100471.50
2022-12-31T16:58:45.176Z,100459.63
2022-12-31T17:01:18.979Z,100462.59
2022-12-31T17:03:50.382Z,100449.72
2022-12-31T17:06:19.162Z,100455.81
2022-12-31T17:08:48.478Z,100454.19
2022-12-31T17:11:34.929Z,100467.16
2022-12-31T17:14:07.672Z,100463.56
2022-12-31T17:16:42.911Z,100449.22
2022-12-31T17:19:32.181Z,100438.69
2022-12-31T17:21:58.709Z,100442.50
2022-12-31T17:24:25.307Z,100424.72
2022-12-31T17:26:52.675Z,100440.19
2022-12-31T17:29:26.245Z,100438.88
2022-12-31T17:32:05.364Z,100438.56
2022-12-31T17:34:34.742Z,100432.78
2022-12-31T17:37:15.930Z,100425.88
2022-12-31T17:39:49.974Z,100442.97
2022-12-31T17:42:34.730Z,100411.50
2022-12-31T17:45:20.991Z,100408.88
2022-12-31T17:47:51.137Z,100433.41
2022-12-31T17:50:26.284Z,100429.97
2022-12-31T17:52:57.340Z,100433.41
2022-12-31T17:55:24.009Z,100425.03
2022-12-31T17:57:57.207Z,100425.19
2022-12-31T18:00:26.376Z,100429.31
2022-12-31T18:02:52.936Z,100423.22
2022-12-31T18:05:22.701Z,100417.13
2022-12-31T18:07:49.399Z,100418.09
2022-12-31T18:10:17.244Z,100421.91
2022-12-31T18:12:44.995Z,100422.56
2022-12-31T18:15:29.589Z,100440.31
2022-12-31T18:17:56.065Z,100410.19
2022-12-31T18:20:24.070Z,100402.63
2022-12-31T18:22:50.895Z,100402.63
2022-12-31T18:25:21.399Z,100407.56
2022-12-31T18:27:51.329Z,100406.28
2022-12-31T18:30:18.254Z,100407.91
2022-12-31T18:32:45.641Z,100404.63
2022-12-31T18:35:48.637Z,100398.00
2022-12-31T18:38:11.585Z,100405.63
2022-12-31T18:40:42.579Z,100411.88
2022-12-31T18:43:16.146Z,100399.00
2022-12-31T18:45:42.808Z,100390.44
2022-12-31T18:48:09.526Z,100398.69
2022-12-31T18:50:36.111Z,100386.50
2022-12-31T18:53:02.655Z,100400.50
2022-12-31T18:55:39.521Z,100394.41
2022-12-31T18:58:07.269Z,100386.81
2022-12-31T19:00:35.080Z,100405.75
2022-12-31T19:03:01.843Z,100404.94
2022-12-31T19:05:31.315Z,100411.84
2022-12-31T19:07:58.897Z,100401.03
2022-12-31T19:10:26.923Z,100401.34
2022-12-31T19:12:53.855Z,100397.94
2022-12-31T19:15:29.629Z,100384.81
2022-12-31T19:17:57.425Z,100399.63
2022-12-31T19:20:23.952Z,100406.69
2022-12-31T19:22:50.423Z,100406.19
2022-12-31T19:25:18.203Z,100405.03
2022-12-31T19:27:44.895Z,100404.66
2022-12-31T19:30:21.353Z,100420.38
2022-12-31T19:32:47.983Z,100425.78
2022-12-31T19:35:15.863Z,100435.19
2022-12-31T19:37:43.821Z,100441.28
2022-12-31T19:40:14.426Z,100452.50
2022-12-31T19:42:41.319Z,100428.63
2022-12-31T19:45:13.489Z,100450.00
2022-12-31T19:47:40.000Z,100447.88
2022-12-31T19:50:06.901Z,100458.09
2022-12-31T19:52:33.390Z,100486.91
2022-12-31T19:54:59.822Z,100448.03
2022-12-31T19:57:26.278Z,100468.31
2022-12-31T19:59:52.787Z,100479.00
2022-12-31T20:02:19.390Z,100492.03
2022-12-31T20:04:45.950Z,100481.97
2022-12-31T20:07:12.452Z,100493.69
2022-12-31T20:09:38.915Z,100482.63
2022-12-31T20:12:05.558Z,100497.47
2022-12-31T20:14:32.071Z,100494.66
2022-12-31T20:16:58.651Z,100489.91
2022-12-31T20:19:25.161Z,100496.31
2022-12-31T20:21:51.730Z,100497.16
2022-12-31T20:24:18.161Z,100506.53
2022-12-31T20:26:44.626Z,100503.56
2022-12-31T20:29:11.156Z,100511.13
2022-12-31T20:31:39.258Z,100516.75
2022-12-31T20:34:05.802Z,100503.38
2022-12-31T20:36:32.417Z,100514.59
2022-12-31T20:38:58.948Z,100511.47
2022-12-31T20:41:26.244Z,100510.97
2022-12-31T20:43:52.801Z,100498.78
2022-12-31T20:46:23.217Z,100521.34
2022-12-31T20:48:52.044Z,100521.84
2022-12-31T20:51:19.570Z,100516.72
2022-12-31T20:53:51.191Z,100530.25
2022-12-31T20:56:18.116Z,100527.75
2022-12-31T20:58:45.002Z,100533.50
2022-12-31T21:01:11.865Z,100536.81
2022-12-31T21:06:28.997Z,100539.06
2022-12-31T21:08:57.576Z,100540.22
2022-12-31T21:11:42.989Z,100540.22
2022-12-31T21:14:09.470Z,100553.53
2022-12-31T21:16:36.151Z,100532.78
2022-12-31T21:19:02.794Z,100548.75
2022-12-31T21:21:29.309Z,100551.25
2022-12-31T21:23:55.850Z,100572.13
2022-12-31T21:26:22.398Z,100539.84
2022-12-31T21:28:48.868Z,100556.19
2022-12-31T21:31:15.510Z,100560.59
2022-12-31T21:33:46.348Z,100556.69
2022-12-31T21:36:13.902Z,100554.59
2022-12-31T21:38:40.652Z,100553.75
2022-12-31T21:41:08.813Z,100557.22
2022-12-31T21:43:35.366Z,100560.97
2022-12-31T21:46:04.641Z,100554.44
2022-12-31T21:48:31.570Z,100557.88
2022-12-31T21:51:15.188Z,100561.03
2022-12-31T21:53:41.688Z,100550.34
2022-12-31T21:56:09.635Z,100556.41
2022-12-31T21:58:38.303Z,100564.50
2022-12-31T22:01:24.152Z,100533.34
2022-12-31T22:03:51.316Z,100554.81
2022-12-31T22:06:20.895Z,100543.78
2022-12-31T22:08:53.768Z,100558.28
2022-12-31T22:11:23.300Z,100561.91
2022-12-31T22:13:50.075Z,100563.53
2022-12-31T22:16:17.271Z,100572.13
2022-12-31T22:18:44.252Z,100574.44
2022-12-31T22:21:18.333Z,100584.00
2022-12-31T22:23:47.233Z,100591.41
2022-12-31T22:26:15.890Z,100587.13
2022-12-31T22:28:43.995Z,100584.66
2022-12-31T22:31:24.302Z,100585.16
2022-12-31T22:33:51.086Z,100614.03
2022-12-31T22:36:20.294Z,100602.84
2022-12-31T22:38:47.664Z,100602.00
2022-12-31T22:41:24.834Z,100590.28
2022-12-31T22:43:58.636Z,100600.69
2022-12-31T22:46:29.380Z,100596.56
2022-12-31T22:48:58.741Z,100586.03
2022-12-31T22:51:28.092Z,100603.81
2022-12-31T22:54:11.900Z,100605.16
2022-12-31T22:56:38.330Z,100603.16
2022-12-31T22:59:04.777Z,100607.28
2022-12-31T23:01:31.416Z,100594.91
2022-12-31T23:03:58.179Z,100598.38
2022-12-31T23:06:24.752Z,100604.16
2022-12-31T23:09:11.379Z,100592.94
2022-12-31T23:11:39.335Z,100575.97
2022-12-31T23:14:25.979Z,100593.94
2022-12-31T23:17:30.486Z,100577.13
2022-12-31T23:20:16.273Z,100601.19
2022-12-31T23:23:01.307Z,100609.78
2022-12-31T23:25:28.018Z,100603.00
2022-12-31T23:27:54.527Z,100596.75
2022-12-31T23:30:20.962Z,100595.75
2022-12-31T23:32:47.440Z,100599.38
2022-12-31T23:35:14.025Z,100594.44
2022-12-31T23:37:40.478Z,100597.06
2022-12-31T23:40:07.854Z,100606.94
2022-12-31T23:42:34.367Z,100605.78
2022-12-31T23:45:00.831Z,100598.06
2022-12-31T23:47:27.289Z,100608.78
2022-12-31T23:49:53.871Z,100621.44
2022-12-31T23:52:20.357Z,100629.53
2022-12-31T23:54:46.847Z,100624.44
2022-12-31T23:57:13.385Z,100614.03
2022-12-31T23:59:39.881Z,100621.09
